createdAt,value
2018-08-10T00:00:22.207Z,100500.86
2018-08-10T00:03:26.811Z,100499.84
2018-08-10T00:05:55.370Z,100505.21
2018-08-10T00:08:23.814Z,100506.98
2018-08-10T00:10:52.271Z,100506.19
2018-08-10T00:13:20.882Z,100503.53
2018-08-10T00:15:49.251Z,100509.25
2018-08-10T00:18:17.787Z,100514.66
2018-08-10T00:20:46.211Z,100514.45
2018-08-10T00:23:14.619Z,100522.06
2018-08-10T00:25:43.143Z,100520.85
2018-08-10T00:28:11.689Z,100526.69
2018-08-10T00:30:40.155Z,100536.95
2018-08-10T00:33:08.635Z,100542.63
2018-08-10T00:35:37.501Z,100546.79
2018-08-10T00:38:05.975Z,100550.33
2018-08-10T00:40:34.527Z,100556.28
2018-08-10T00:43:03.022Z,100561.14
2018-08-10T00:45:31.507Z,100559.83
2018-08-10T00:48:00.008Z,100562.84
2018-08-10T00:50:28.605Z,100581.51
2018-08-10T00:52:57.115Z,100576.21
2018-08-10T00:55:25.559Z,100585.44
2018-08-10T00:57:54.226Z,100585.99
2018-08-10T01:00:24.030Z,100593.72
2018-08-10T01:02:53.386Z,100603.03
2018-08-10T01:05:22.080Z,100603.37
2018-08-10T01:07:50.683Z,100615.02
2018-08-10T01:10:20.488Z,100617.23
2018-08-10T01:12:49.159Z,100621.21
2018-08-10T01:15:18.259Z,100630.11
2018-08-10T01:17:47.340Z,100625.22
2018-08-10T01:20:20.361Z,100629.95
2018-08-10T01:22:54.155Z,100636.96
2018-08-10T01:25:23.919Z,100632.05
2018-08-10T01:27:55.649Z,100641.22
2018-08-10T01:30:24.987Z,100652.78
2018-08-10T01:32:54.019Z,100645.81
2018-08-10T01:35:23.204Z,100655.31
2018-08-10T01:37:51.627Z,100649.45
2018-08-10T01:40:20.063Z,100658.00
2018-08-10T01:42:48.687Z,100659.62
2018-08-10T01:45:17.367Z,100673.88
2018-08-10T01:47:45.818Z,100671.47
2018-08-10T01:50:14.411Z,100680.91
2018-08-10T01:52:43.210Z,100677.64
2018-08-10T01:55:12.047Z,100686.77
2018-08-10T01:57:40.911Z,100688.65
2018-08-10T02:00:10.299Z,100692.26
2018-08-10T02:02:39.006Z,100690.87
2018-08-10T02:05:10.731Z,100700.97
2018-08-10T02:07:39.986Z,100697.04
2018-08-10T02:10:10.716Z,100709.27
2018-08-10T02:12:39.870Z,100704.56
2018-08-10T02:15:10.573Z,100713.05
2018-08-10T02:17:39.512Z,100715.50
2018-08-10T02:20:10.447Z,100716.70
2018-08-10T02:22:38.915Z,100718.97
2018-08-10T02:25:09.154Z,100723.88
2018-08-10T02:27:37.615Z,100720.84
2018-08-10T02:30:08.070Z,100725.16
2018-08-10T02:32:36.935Z,100719.45
2018-08-10T02:35:06.007Z,100729.73
2018-08-10T02:37:34.599Z,100726.38
2018-08-10T02:40:03.360Z,100729.59
2018-08-10T02:42:31.907Z,100728.86
2018-08-10T02:45:00.355Z,100720.61
2018-08-10T02:47:28.814Z,100730.56
2018-08-10T02:49:57.291Z,100730.77
2018-08-10T02:52:25.807Z,100730.59
2018-08-10T02:54:54.809Z,100730.44
2018-08-10T02:57:23.227Z,100736.33
2018-08-10T02:59:51.665Z,100744.11
2018-08-10T03:02:20.628Z,100755.09
2018-08-10T03:04:49.115Z,100754.39
2018-08-10T03:07:17.572Z,100755.59
2018-08-10T03:09:46.062Z,100765.12
2018-08-10T03:12:14.547Z,100769.27
2018-08-10T03:14:43.547Z,100773.28
2018-08-10T03:17:12.600Z,100776.93
2018-08-10T03:19:41.057Z,100778.82
2018-08-10T03:22:09.573Z,100786.61
2018-08-10T03:24:38.288Z,100776.81
2018-08-10T03:27:07.769Z,100778.29
2018-08-10T03:29:36.559Z,100779.84
2018-08-10T03:32:05.328Z,100778.23
2018-08-10T03:34:33.739Z,100792.23
2018-08-10T03:37:02.188Z,100785.38
2018-08-10T03:39:30.788Z,100793.31
2018-08-10T03:41:59.340Z,100802.72
2018-08-10T03:44:27.751Z,100797.89
2018-08-10T03:46:56.219Z,100800.32
2018-08-10T03:49:24.675Z,100815.00
2018-08-10T03:51:53.424Z,100826.34
2018-08-10T03:54:22.238Z,100826.45
2018-08-10T03:56:50.780Z,100827.90
2018-08-10T03:59:19.275Z,100830.88
2018-08-10T04:01:48.043Z,100835.09
2018-08-10T04:04:16.455Z,100835.87
2018-08-10T04:06:45.097Z,100835.23
2018-08-10T04:09:13.971Z,100842.00
2018-08-10T04:11:43.327Z,100843.75
2018-08-10T04:14:11.912Z,100843.81
2018-08-10T04:16:40.896Z,100843.05
2018-08-10T04:19:09.424Z,100855.20
2018-08-10T04:21:37.949Z,100858.38
2018-08-10T04:24:06.454Z,100858.97
2018-08-10T04:26:34.863Z,100866.95
2018-08-10T04:29:03.455Z,100869.68
2018-08-10T04:31:31.994Z,100870.84
2018-08-10T04:34:00.377Z,100872.70
2018-08-10T04:36:28.801Z,100875.27
2018-08-10T04:38:57.509Z,100877.29
2018-08-10T04:41:25.922Z,100866.84
2018-08-10T04:43:54.429Z,100873.75
2018-08-10T04:46:22.914Z,100880.83
2018-08-10T04:48:51.528Z,100884.94
2018-08-10T04:51:19.987Z,100887.95
2018-08-10T04:53:48.543Z,100894.20
2018-08-10T04:56:17.007Z,100895.61
2018-08-10T04:58:45.500Z,100899.89
2018-08-10T05:01:14.158Z,100900.16
2018-08-10T05:03:42.620Z,100899.46
2018-08-10T05:06:11.175Z,100901.01
2018-08-10T05:08:39.685Z,100898.25
2018-08-10T05:11:08.176Z,100898.74
2018-08-10T05:13:36.658Z,100895.00
2018-08-10T05:16:05.217Z,100903.30
2018-08-10T05:18:33.748Z,100912.98
2018-08-10T05:21:02.239Z,100920.20
2018-08-10T05:23:31.297Z,100912.86
2018-08-10T05:25:59.897Z,100918.32
2018-08-10T05:28:28.572Z,100922.70
2018-08-10T05:30:57.203Z,100925.45
2018-08-10T05:33:25.667Z,100922.99
2018-08-10T05:35:54.118Z,100928.11
2018-08-10T05:38:22.683Z,100929.69
2018-08-10T05:40:51.106Z,100935.58
2018-08-10T05:43:19.598Z,100936.14
2018-08-10T05:45:48.104Z,100941.28
2018-08-10T05:48:16.648Z,100936.27
2018-08-10T05:50:45.335Z,100941.45
2018-08-10T05:53:14.187Z,100943.02
2018-08-10T05:55:42.715Z,100942.13
2018-08-10T05:58:11.186Z,100936.36
2018-08-10T06:00:39.825Z,100948.72
2018-08-10T06:03:08.260Z,100949.13
2018-08-10T06:05:36.803Z,100958.09
2018-08-10T06:08:05.319Z,100960.88
2018-08-10T06:10:33.761Z,100961.69
2018-08-10T06:13:02.320Z,100963.87
2018-08-10T06:15:30.861Z,100957.14
2018-08-10T06:17:59.378Z,100959.94
2018-08-10T06:20:27.853Z,100965.57
2018-08-10T06:22:56.620Z,100968.16
2018-08-10T06:25:24.953Z,100963.97
2018-08-10T06:27:53.420Z,100972.71
2018-08-10T06:30:21.891Z,100967.83
2018-08-10T06:32:50.327Z,100968.28
2018-08-10T06:35:18.761Z,100975.61
2018-08-10T06:37:47.218Z,100972.75
2018-08-10T06:40:15.704Z,100973.28
2018-08-10T06:42:44.155Z,100973.39
2018-08-10T06:45:12.733Z,100972.95
2018-08-10T06:47:41.004Z,100971.48
2018-08-10T06:50:09.507Z,100977.07
2018-08-10T06:52:38.223Z,100983.14
2018-08-10T06:55:06.639Z,100977.92
2018-08-10T06:57:35.611Z,100982.80
2018-08-10T07:00:05.131Z,100977.50
2018-08-10T07:02:33.544Z,100976.39
2018-08-10T07:05:01.980Z,100978.66
2018-08-10T07:07:30.620Z,100982.56
2018-08-10T07:09:59.276Z,100988.67
2018-08-10T07:12:27.675Z,100983.48
2018-08-10T07:14:56.306Z,100991.44
2018-08-10T07:17:24.771Z,100991.52
2018-08-10T07:19:53.177Z,100996.31
2018-08-10T07:22:21.651Z,100990.38
2018-08-10T07:24:50.111Z,100997.89
2018-08-10T07:27:18.566Z,100998.97
2018-08-10T07:29:46.984Z,100994.09
2018-08-10T07:32:15.383Z,100999.55
2018-08-10T07:34:43.882Z,101000.81
2018-08-10T07:37:12.310Z,100997.89
2018-08-10T07:39:40.847Z,100998.58
2018-08-10T07:42:09.284Z,100992.66
2018-08-10T07:44:37.793Z,100998.74
2018-08-10T07:47:06.331Z,101000.57
2018-08-10T07:49:34.767Z,100999.34
2018-08-10T07:52:03.372Z,101005.11
2018-08-10T07:54:31.831Z,100999.20
2018-08-10T07:57:00.329Z,101004.62
2018-08-10T07:59:28.849Z,101001.20
2018-08-10T08:01:57.318Z,101006.58
2018-08-10T08:04:25.744Z,101000.14
2018-08-10T08:06:54.381Z,101008.63
2018-08-10T08:09:22.824Z,101011.62
2018-08-10T08:11:51.203Z,101008.70
2018-08-10T08:14:19.736Z,101007.08
2018-08-10T08:16:48.139Z,101004.27
2018-08-10T08:19:16.919Z,101013.14
2018-08-10T08:22:11.507Z,101010.80
2018-08-10T08:24:40.809Z,101003.55
2018-08-10T08:27:09.820Z,101008.66
2018-08-10T08:29:38.392Z,101008.11
2018-08-10T08:32:07.135Z,101001.80
2018-08-10T08:34:35.603Z,101007.05
2018-08-10T08:37:04.863Z,101015.28
2018-08-10T08:40:45.767Z,101002.39
2018-08-10T08:43:14.859Z,101003.33
2018-08-10T08:45:49.576Z,101007.97
2018-08-10T08:48:18.028Z,101009.13
2018-08-10T08:50:48.000Z,101009.36
2018-08-10T08:53:16.387Z,101011.27
2018-08-10T08:55:51.259Z,101010.37
2018-08-10T08:58:19.943Z,101014.34
2018-08-10T09:00:48.406Z,101010.51
2018-08-10T09:03:28.747Z,101007.61
2018-08-10T09:05:57.710Z,100998.72
2018-08-10T09:08:26.135Z,101003.61
2018-08-10T09:10:56.064Z,101000.05
2018-08-10T09:13:25.311Z,100999.09
2018-08-10T09:15:53.922Z,101001.07
2018-08-10T09:18:22.399Z,100996.88
2018-08-10T09:20:51.237Z,101002.36
2018-08-10T09:23:19.757Z,101000.83
2018-08-10T09:25:48.479Z,100997.55
2018-08-10T09:28:16.855Z,100993.80
2018-08-10T09:30:45.423Z,100990.39
2018-08-10T09:33:13.995Z,100991.47
2018-08-10T09:35:42.503Z,100982.25
2018-08-10T09:38:10.919Z,100990.14
2018-08-10T09:40:39.449Z,100987.47
2018-08-10T09:43:07.860Z,100985.33
2018-08-10T09:45:36.360Z,100974.53
2018-08-10T09:48:05.171Z,100983.00
2018-08-10T09:50:33.663Z,100978.06
2018-08-10T09:53:03.466Z,100982.44
2018-08-10T09:55:36.430Z,100984.03
2018-08-10T09:58:09.274Z,100981.71
2018-08-10T10:00:43.024Z,100979.55
2018-08-10T10:03:17.575Z,100980.72
2018-08-10T10:05:46.734Z,100979.70
2018-08-10T10:08:15.539Z,100978.50
2018-08-10T10:10:43.970Z,100976.45
2018-08-10T10:13:12.887Z,100982.77
2018-08-10T10:15:42.064Z,100977.45
2018-08-10T10:18:13.670Z,100976.06
2018-08-10T10:20:42.563Z,100979.61
2018-08-10T10:23:11.126Z,100969.13
2018-08-10T10:25:39.775Z,100968.86
2018-08-10T10:28:08.395Z,100969.63
2018-08-10T10:30:36.887Z,100963.69
2018-08-10T10:33:05.789Z,100966.36
2018-08-10T10:35:34.284Z,100962.70
2018-08-10T10:38:02.710Z,100964.67
2018-08-10T10:40:31.439Z,100962.90
2018-08-10T10:42:59.915Z,100960.28
2018-08-10T10:45:28.382Z,100966.59
2018-08-10T10:47:56.959Z,100958.08
2018-08-10T10:50:25.406Z,100953.88
2018-08-10T10:52:53.835Z,100961.31
2018-08-10T10:55:22.439Z,100964.14
2018-08-10T10:57:50.875Z,100959.20
2018-08-10T11:00:20.577Z,100956.95
2018-08-10T11:02:49.623Z,100948.56
2018-08-10T11:05:18.404Z,100955.92
2018-08-10T11:07:50.858Z,100947.92
2018-08-10T11:10:20.045Z,100941.89
2018-08-10T11:12:48.486Z,100936.84
2018-08-10T11:15:16.914Z,100935.94
2018-08-10T11:17:45.340Z,100929.84
2018-08-10T11:20:14.423Z,100940.59
2018-08-10T11:22:43.287Z,100945.71
2018-08-10T11:25:13.085Z,100944.55
2018-08-10T11:27:42.259Z,100948.92
2018-08-10T11:30:11.337Z,100948.05
2018-08-10T11:32:40.043Z,100938.30
2018-08-10T11:35:09.283Z,100939.16
2018-08-10T11:37:38.028Z,100931.37
2018-08-10T11:40:10.191Z,100929.63
2018-08-10T11:42:38.935Z,100903.56
2018-08-10T11:45:09.763Z,100930.73
2018-08-10T11:47:38.739Z,100934.44
2018-08-10T11:50:07.566Z,100934.54
2018-08-10T11:52:36.360Z,100928.39
2018-08-10T11:55:05.387Z,100929.27
2018-08-10T11:57:33.876Z,100922.41
2018-08-10T12:00:02.361Z,100914.22
2018-08-10T12:02:30.755Z,100914.66
2018-08-10T12:04:59.164Z,100912.36
2018-08-10T12:07:27.627Z,100916.31
2018-08-10T12:09:56.618Z,100907.75
2018-08-10T12:12:25.054Z,100914.36
2018-08-10T12:14:53.801Z,100911.29
2018-08-10T12:17:22.372Z,100904.76
2018-08-10T12:19:50.891Z,100903.26
2018-08-10T12:22:19.347Z,100901.95
2018-08-10T12:24:47.870Z,100901.08
2018-08-10T12:27:16.284Z,100905.78
2018-08-10T12:29:44.843Z,100907.81
2018-08-10T12:32:13.235Z,100905.16
2018-08-10T12:34:41.631Z,100904.13
2018-08-10T12:37:10.108Z,100908.58
2018-08-10T12:39:38.530Z,100903.86
2018-08-10T12:42:07.175Z,100912.67
2018-08-10T12:44:35.707Z,100916.00
2018-08-10T12:47:04.173Z,100921.48
2018-08-10T12:49:32.560Z,100916.62
2018-08-10T12:52:01.190Z,100907.45
2018-08-10T12:54:29.715Z,100907.58
2018-08-10T12:56:58.160Z,100900.91
2018-08-10T12:59:26.662Z,100909.83
2018-08-10T13:01:55.222Z,100907.00
2018-08-10T13:04:23.715Z,100903.50
2018-08-10T13:06:52.382Z,100908.33
2018-08-10T13:09:20.771Z,100904.02
2018-08-10T13:11:49.222Z,100905.61
2018-08-10T13:14:17.897Z,100900.42
2018-08-10T13:16:46.355Z,100895.32
2018-08-10T13:19:14.811Z,100897.24
2018-08-10T13:21:43.442Z,100887.84
2018-08-10T13:24:11.961Z,100886.20
2018-08-10T13:26:40.407Z,100892.36
2018-08-10T13:29:08.863Z,100885.68
2018-08-10T13:31:37.363Z,100887.63
2018-08-10T13:34:05.835Z,100884.03
2018-08-10T13:36:34.280Z,100880.06
2018-08-10T13:39:02.735Z,100881.98
2018-08-10T13:41:31.227Z,100876.94
2018-08-10T13:43:59.979Z,100875.67
2018-08-10T13:46:28.498Z,100878.98
2018-08-10T13:48:56.932Z,100872.50
2018-08-10T13:51:25.399Z,100869.23
2018-08-10T13:53:53.911Z,100870.52
2018-08-10T13:56:22.435Z,100874.17
2018-08-10T13:58:51.045Z,100871.12
2018-08-10T14:01:19.498Z,100866.59
2018-08-10T14:03:47.992Z,100872.59
2018-08-10T14:06:16.614Z,100868.99
2018-08-10T14:08:45.060Z,100864.66
2018-08-10T14:11:13.548Z,100872.17
2018-08-10T14:13:42.051Z,100864.89
2018-08-10T14:16:10.579Z,100854.28
2018-08-10T14:18:39.007Z,100853.87
2018-08-10T14:21:07.763Z,100849.78
2018-08-10T14:23:36.199Z,100854.36
2018-08-10T14:26:04.747Z,100845.73
2018-08-10T14:28:33.742Z,100848.64
2018-08-10T14:31:02.222Z,100838.24
2018-08-10T14:33:30.894Z,100843.42
2018-08-10T14:35:59.327Z,100842.73
2018-08-10T14:38:27.739Z,100832.52
2018-08-10T14:40:56.230Z,100840.23
2018-08-10T14:43:25.068Z,100833.88
2018-08-10T14:45:53.540Z,100836.32
2018-08-10T14:48:22.008Z,100833.93
2018-08-10T14:50:50.443Z,100825.59
2018-08-10T14:53:18.871Z,100830.79
2018-08-10T14:55:47.354Z,100823.81
2018-08-10T14:58:16.033Z,100819.58
2018-08-10T15:00:44.516Z,100824.24
2018-08-10T15:03:12.855Z,100819.98
2018-08-10T15:05:41.291Z,100818.76
2018-08-10T15:08:09.703Z,100814.57
2018-08-10T15:10:38.251Z,100810.34
2018-08-10T15:13:06.840Z,100808.93
2018-08-10T15:15:35.135Z,100810.00
2018-08-10T15:18:03.547Z,100814.27
2018-08-10T15:20:32.149Z,100803.61
2018-08-10T15:23:00.735Z,100803.48
2018-08-10T15:25:29.211Z,100797.38
2018-08-10T15:27:57.851Z,100790.70
2018-08-10T15:30:26.583Z,100793.50
2018-08-10T15:32:55.115Z,100797.95
2018-08-10T15:35:23.567Z,100791.86
2018-08-10T15:37:52.044Z,100790.63
2018-08-10T15:40:20.770Z,100791.49
2018-08-10T15:42:49.435Z,100788.50
2018-08-10T15:45:18.603Z,100795.81
2018-08-10T15:47:47.481Z,100796.08
2018-08-10T15:50:16.244Z,100791.04
2018-08-10T15:52:45.770Z,100794.32
2018-08-10T15:55:14.907Z,100788.95
2018-08-10T15:57:43.693Z,100789.67
2018-08-10T16:00:18.588Z,100788.17
2018-08-10T16:02:47.415Z,100788.14
2018-08-10T16:05:15.888Z,100773.00
2018-08-10T16:07:44.743Z,100774.27
2018-08-10T16:10:13.715Z,100771.51
2018-08-10T16:12:42.183Z,100770.65
2018-08-10T16:15:16.444Z,100776.28
2018-08-10T16:17:44.943Z,100771.67
2018-08-10T16:20:15.388Z,100769.09
2018-08-10T16:22:43.814Z,100775.46
2018-08-10T16:25:12.599Z,100768.05
2018-08-10T16:27:42.332Z,100781.20
2018-08-10T16:30:12.691Z,100780.78
2018-08-10T16:32:42.102Z,100779.03
2018-08-10T16:35:11.785Z,100774.73
2018-08-10T16:37:41.472Z,100774.97
2018-08-10T16:40:10.976Z,100772.38
2018-08-10T16:42:40.619Z,100770.39
2018-08-10T16:45:09.811Z,100763.36
2018-08-10T16:47:39.039Z,100769.16
2018-08-10T16:50:10.851Z,100763.59
2018-08-10T16:52:40.647Z,100767.67
2018-08-10T16:55:12.895Z,100770.98
2018-08-10T16:57:42.553Z,100763.84
2018-08-10T17:00:12.987Z,100759.77
2018-08-10T17:02:41.462Z,100760.62
2018-08-10T17:05:10.963Z,100757.28
2018-08-10T17:07:40.199Z,100763.96
2018-08-10T17:10:09.001Z,100761.26
2018-08-10T17:12:39.138Z,100766.30
2018-08-10T17:15:10.142Z,100761.49
2018-08-10T17:17:38.659Z,100748.61
2018-08-10T17:20:07.412Z,100761.73
2018-08-10T17:22:35.852Z,100756.05
2018-08-10T17:25:05.288Z,100750.73
2018-08-10T17:27:33.725Z,100755.91
2018-08-10T17:30:02.130Z,100754.20
2018-08-10T17:32:30.626Z,100750.46
2018-08-10T17:34:59.138Z,100753.53
2018-08-10T17:37:27.607Z,100750.69
2018-08-10T17:39:56.476Z,100747.61
2018-08-10T17:42:24.947Z,100745.56
2018-08-10T17:44:53.399Z,100753.06
2018-08-10T17:47:22.530Z,100746.67
2018-08-10T17:49:51.000Z,100745.90
2018-08-10T17:52:19.426Z,100748.03
2018-08-10T17:54:48.058Z,100747.02
2018-08-10T17:57:16.483Z,100741.00
2018-08-10T17:59:44.882Z,100748.81
2018-08-10T18:02:13.641Z,100743.69
2018-08-10T18:04:42.152Z,100745.11
2018-08-10T18:07:10.665Z,100752.29
2018-08-10T18:09:39.363Z,100754.78
2018-08-10T18:12:07.854Z,100749.64
2018-08-10T18:14:36.379Z,100763.31
2018-08-10T18:17:04.870Z,100765.91
2018-08-10T18:19:33.439Z,100765.64
2018-08-10T18:22:01.943Z,100762.11
2018-08-10T18:24:30.799Z,100767.67
2018-08-10T18:26:59.352Z,100768.08
2018-08-10T18:29:27.807Z,100772.08
2018-08-10T18:31:56.247Z,100768.80
2018-08-10T18:34:24.799Z,100775.34
2018-08-10T18:36:53.339Z,100777.97
2018-08-10T18:39:21.854Z,100773.66
2018-08-10T18:41:50.263Z,100779.30
2018-08-10T18:44:18.699Z,100774.71
2018-08-10T18:46:47.617Z,100781.95
2018-08-10T18:49:16.083Z,100781.25
2018-08-10T18:51:44.548Z,100781.19
2018-08-10T18:54:13.300Z,100782.70
2018-08-10T18:56:41.712Z,100785.03
2018-08-10T18:59:10.240Z,100795.86
2018-08-10T19:01:39.059Z,100795.11
2018-08-10T19:04:07.567Z,100793.78
2018-08-10T19:06:36.168Z,100800.53
2018-08-10T19:09:07.646Z,100797.75
2018-08-10T19:11:36.200Z,100796.67
2018-08-10T19:14:04.771Z,100800.58
2018-08-10T19:16:33.345Z,100795.55
2018-08-10T19:19:02.211Z,100801.34
2018-08-10T19:21:31.315Z,100803.47
2018-08-10T19:24:00.359Z,100806.97
2018-08-10T19:26:29.352Z,100802.80
2018-08-10T19:28:58.713Z,100804.16
2018-08-10T19:31:27.771Z,100811.22
2018-08-10T19:33:57.569Z,100814.73
2018-08-10T19:36:26.427Z,100819.72
2018-08-10T19:38:56.885Z,100826.28
2018-08-10T19:41:26.142Z,100830.35
2018-08-10T19:43:55.099Z,100836.74
2018-08-10T19:46:24.035Z,100829.98
2018-08-10T19:48:53.915Z,100827.75
2018-08-10T19:51:22.778Z,100828.55
2018-08-10T19:53:51.897Z,100831.97
2018-08-10T19:56:20.865Z,100825.19
2018-08-10T19:58:49.750Z,100829.01
2018-08-10T20:01:19.139Z,100827.33
2018-08-10T20:03:48.424Z,100835.31
2018-08-10T20:06:17.827Z,100829.63
2018-08-10T20:08:47.105Z,100833.09
2018-08-10T20:11:16.581Z,100834.70
2018-08-10T20:13:45.683Z,100835.14
2018-08-10T20:16:15.062Z,100834.09
2018-08-10T20:18:44.273Z,100832.80
2018-08-10T20:21:13.714Z,100833.62
2018-08-10T20:23:42.955Z,100827.59
2018-08-10T20:26:12.448Z,100830.79
2018-08-10T20:28:41.548Z,100835.00
2018-08-10T20:31:10.675Z,100838.00
2018-08-10T20:33:40.405Z,100834.48
2018-08-10T20:36:09.749Z,100831.23
2018-08-10T20:38:38.785Z,100830.92
2018-08-10T20:41:07.949Z,100834.32
2018-08-10T20:43:36.845Z,100831.48
2018-08-10T20:46:05.688Z,100835.47
2018-08-10T20:48:35.681Z,100841.95
2018-08-10T20:51:04.651Z,100837.86
2018-08-10T20:53:33.930Z,100837.86
2018-08-10T20:56:03.021Z,100841.22
2018-08-10T20:58:32.056Z,100844.14
2018-08-10T21:01:00.964Z,100843.32
2018-08-10T21:03:29.688Z,100841.22
2018-08-10T21:05:58.725Z,100841.81
2018-08-10T21:08:27.417Z,100841.67
2018-08-10T21:10:56.091Z,100837.17
2018-08-10T21:13:24.860Z,100836.34
2018-08-10T21:15:53.750Z,100825.89
2018-08-10T21:18:22.361Z,100829.11
2018-08-10T21:20:50.848Z,100837.39
2018-08-10T21:23:19.347Z,100839.98
2018-08-10T21:25:47.853Z,100832.89
2018-08-10T21:28:16.303Z,100829.45
2018-08-10T21:30:44.769Z,100833.25
2018-08-10T21:33:13.196Z,100832.02
2018-08-10T21:35:41.920Z,100836.94
2018-08-10T21:38:10.323Z,100837.19
2018-08-10T21:40:38.742Z,100840.90
2018-08-10T21:43:07.251Z,100837.42
2018-08-10T21:45:35.719Z,100834.99
2018-08-10T21:48:04.201Z,100832.30
2018-08-10T21:50:32.763Z,100835.89
2018-08-10T21:53:01.243Z,100838.73
2018-08-10T21:55:29.671Z,100836.27
2018-08-10T21:57:58.093Z,100838.08
2018-08-10T22:00:39.947Z,100838.88
2018-08-10T22:03:09.863Z,100837.13
2018-08-10T22:05:38.303Z,100837.34
2018-08-10T22:08:06.937Z,100830.48
2018-08-10T22:10:35.890Z,100838.55
2018-08-10T22:13:04.392Z,100835.45
2018-08-10T22:15:38.211Z,100840.61
2018-08-10T22:18:11.947Z,100847.24
2018-08-10T22:20:40.719Z,100847.77
2018-08-10T22:23:09.143Z,100846.42
2018-08-10T22:25:37.589Z,100853.70
2018-08-10T22:28:06.095Z,100845.25
2018-08-10T22:30:34.546Z,100850.00
2018-08-10T22:33:03.071Z,100848.70
2018-08-10T22:35:31.583Z,100847.87
2018-08-10T22:38:00.109Z,100849.45
2018-08-10T22:40:28.710Z,100850.24
2018-08-10T22:42:57.467Z,100850.89
2018-08-10T22:45:25.853Z,100854.72
2018-08-10T22:47:54.299Z,100848.38
2018-08-10T22:50:22.963Z,100848.01
2018-08-10T22:52:51.387Z,100849.45
2018-08-10T22:55:19.974Z,100852.88
2018-08-10T22:57:48.746Z,100850.94
2018-08-10T23:00:17.396Z,100851.25
2018-08-10T23:02:45.863Z,100848.33
2018-08-10T23:05:14.375Z,100853.41
2018-08-10T23:07:43.103Z,100852.32
2018-08-10T23:10:12.931Z,100850.98
2018-08-10T23:12:41.845Z,100849.69
2018-08-10T23:15:10.767Z,100851.31
2018-08-10T23:17:39.748Z,100853.00
2018-08-10T23:20:10.957Z,100857.50
2018-08-10T23:22:39.471Z,100850.28
2018-08-10T23:25:10.407Z,100845.72
2018-08-10T23:27:38.959Z,100848.27
2018-08-10T23:30:10.247Z,100838.95
2018-08-10T23:32:38.775Z,100832.28
2018-08-10T23:35:07.762Z,100838.34
2018-08-10T23:37:36.714Z,100833.56
2018-08-10T23:40:07.468Z,100833.41
2018-08-10T23:42:35.964Z,100817.20
2018-08-10T23:45:05.463Z,100826.90
2018-08-10T23:47:33.935Z,100825.09
2018-08-10T23:50:02.414Z,100829.70
2018-08-10T23:52:31.031Z,100818.86
2018-08-10T23:54:59.443Z,100819.00
2018-08-10T23:57:28.065Z,100815.59
2018-08-10T23:59:56.512Z,100818.30
